OINR  Ramsar Airport

Add Bookmark

Iran

Status IATA
Operational RZR
Latitude Longitude
36° 54' 35" N 50° 40' 46" E
36.909901 50.679600
Local (DST + 5) UTC (GMT + 4)
Jan 27, 2015 11:47 Jan 27, 2015 08:17
Sunrise-Sunset Local UTC
Begin Civil Twilight 06:44 03:14
Sunrise 07:11 03:41
Sunset 05:28 13:58
End Civil Twilight 05:55 14:25

Current Weather

METAR Observed VFR
OINR 270800Z 36004KT 9999 FEW025CB SCT030 OVC090 10/05 Q1020 Tue, Jan 27, 2015 @ 08:00 UTC
(17 Minutes ago)
Visual Flight Rules
Wind Visibility Clouds Conditions
360° at 4 knots (7 kph) 10 km or more
  • Few at 2,500' AGL
  • Scattered at 3,000' AGL
  • Overcast at 9,000' AGL
  • No significant weather
Temperatures Readings Precipitation
Current Temp 10°C (50°F)
Dewpoint 5°C (41°F)
Humidity 71%
Altimeter 30.12"Hg
Sea Level Pressure 1020mb
None Recorded

Additional weather within a 92.6km radius of OINR

Map ICAO Location
OINN 75km E (111°)

24 Hour Weather History

Loading
-

24 Hour Weather Graphs

Loading
-

CheckWX.com is intended as a tool to help pilots better visualize weather data. It is not intended as a substitute for an official weather briefing obtained from a Flight Service Station. CheckWX.com does not meet the FAA requirements for an official pre-flight weather briefing. Therefore, it's important that pilots still call and obtain an official FSS pre-flight weather briefing.